Airfield :
LOGIN :

Register | Disclaimer

   EN    FR    IT 

 










Legend :    VFR   Marginal VFR   IFR   Intensive IFR   Very Intensive IFR
Visi :
Ceiling :
>= 8 km
>= 3000ft
5 to 8 km
1000 to 3000 ft
1500m to 5 km
500 to 1000 ft
800 to 1500m
200 to 500 ft
< 800m
< 200 ft
Symbols :   Thunderstorms  Fog  Heavy snow  Heavy precipitations  Wind > 20 kt
SIGMETs :     Misc.  Thunderstorms  Icing  Turbulence  Mountain Waves  Volcanic Ashes







- Airport Elevation : 978 ft
- IATA code : LNZ


LOWL - Linz

CURRENT METAR :
  • 242050Z AUTO 17003KT 130V200 8000 FEW050 BKN090 10/06 Q1019 NOSIG

EXPIRED METARs :
  • 242020Z AUTO 16003KT 9000 FEW050 SCT080 BKN090 11/06 Q1019 NOSIG
  • 241950Z AUTO 10004KT 9999 FEW070 BKN080 11/06 Q1019 NOSIG
  • 241920Z AUTO 10003KT 9999 BKN070 11/05 Q1019 NOSIG
  • 241850Z AUTO 32005KT 9999 FEW060 BKN070 13/05 Q1019 NOSIG
  • 241820Z AUTO 30006KT 9999 NSC 13/05 Q1019 NOSIG
  • 241750Z AUTO 29008KT 9999 NSC 13/05 Q1019 NOSIG

TAF TAF LOWL
Valid from the 24 at 18:00 until the 25 at 18:00 UTC


241715Z 2418/2518 28010KT CAVOK TX15/2418Z TN05/2518Z
BECMG 2418/2420 9999 BKN050
TEMPO 2423/2518 28015G25KT -SHRA BKN020
TEMPO 2510/2516 30024G36KT SCT040
No reported NOTAMs for that airfield.



MET'MAP, your aeronautical weather chart ! - Copyright ORBIFLY December 2007 - Disclaimer

ORBIFLY MET'MAP TEAM :

Programming & Development : Alexandra Zaïnal
Concept & Development : Baudouin d'Aumeries
Co-Development & Prog : Marc-Olivier Méhu
Technical & hardware support : Manuel Goepfert

Contact : metmap@orbifly.com




SOURCES & CREDITS :

   NOAA